sensor_id;sensor_type;location;lat;lon;timestamp;temperature;humidity
37528;DHT22;23372;52.050;4.810;2024-02-21T00:00:13;9.60;99.90
37528;DHT22;23372;52.050;4.810;2024-02-21T00:02:40;9.60;99.90
37528;DHT22;23372;52.050;4.810;2024-02-21T00:05:05;9.60;99.90
37528;DHT22;23372;52.050;4.810;2024-02-21T00:07:31;9.60;99.90
37528;DHT22;23372;52.050;4.810;2024-02-21T00:09:56;9.70;99.90
37528;DHT22;23372;52.050;4.810;2024-02-21T00:12:22;9.60;99.90
37528;DHT22;23372;52.050;4.810;2024-02-21T00:14:47;9.60;99.90
37528;DHT22;23372;52.050;4.810;2024-02-21T00:17:13;9.70;99.90
37528;DHT22;23372;52.050;4.810;2024-02-21T00:19:38;9.60;99.90
37528;DHT22;23372;52.050;4.810;2024-02-21T00:22:04;9.60;99.90
37528;DHT22;23372;52.050;4.810;2024-02-21T00:24:30;9.60;99.90
37528;DHT22;23372;52.050;4.810;2024-02-21T00:26:55;9.60;99.90
37528;DHT22;23372;52.050;4.810;2024-02-21T00:29:21;9.70;99.90
37528;DHT22;23372;52.050;4.810;2024-02-21T00:31:48;9.70;99.90
37528;DHT22;23372;52.050;4.810;2024-02-21T00:34:14;9.70;99.90
37528;DHT22;23372;52.050;4.810;2024-02-21T00:36:39;9.70;99.90
37528;DHT22;23372;52.050;4.810;2024-02-21T00:39:05;9.70;99.90
37528;DHT22;23372;52.050;4.810;2024-02-21T00:41:31;9.70;99.90
37528;DHT22;23372;52.050;4.810;2024-02-21T00:43:57;9.70;99.90
37528;DHT22;23372;52.050;4.810;2024-02-21T00:46:22;9.70;99.90
37528;DHT22;23372;52.050;4.810;2024-02-21T00:48:48;9.70;99.90
37528;DHT22;23372;52.050;4.810;2024-02-21T00:51:15;9.60;99.90
37528;DHT22;23372;52.050;4.810;2024-02-21T00:53:41;9.70;99.90
37528;DHT22;23372;52.050;4.810;2024-02-21T00:56:07;9.70;99.90
37528;DHT22;23372;52.050;4.810;2024-02-21T00:58:32;9.70;99.90
37528;DHT22;23372;52.050;4.810;2024-02-21T01:00:58;9.70;99.90
37528;DHT22;23372;52.050;4.810;2024-02-21T01:03:23;9.70;99.90
37528;DHT22;23372;52.050;4.810;2024-02-21T01:05:49;9.70;99.90
37528;DHT22;23372;52.050;4.810;2024-02-21T01:08:14;9.70;99.90
37528;DHT22;23372;52.050;4.810;2024-02-21T01:10:40;9.70;99.90
37528;DHT22;23372;52.050;4.810;2024-02-21T01:13:06;9.70;99.90
37528;DHT22;23372;52.050;4.810;2024-02-21T01:15:32;9.70;99.90
37528;DHT22;23372;52.050;4.810;2024-02-21T01:17:58;9.70;99.90
37528;DHT22;23372;52.050;4.810;2024-02-21T01:20:24;9.70;99.90
37528;DHT22;23372;52.050;4.810;2024-02-21T01:22:49;9.80;99.90
37528;DHT22;23372;52.050;4.810;2024-02-21T01:25:15;9.70;99.90
37528;DHT22;23372;52.050;4.810;2024-02-21T01:27:41;9.80;99.90
37528;DHT22;23372;52.050;4.810;2024-02-21T01:30:07;9.70;99.90
37528;DHT22;23372;52.050;4.810;2024-02-21T01:32:33;9.70;99.90
37528;DHT22;23372;52.050;4.810;2024-02-21T01:34:59;9.70;99.90
37528;DHT22;23372;52.050;4.810;2024-02-21T01:37:24;9.70;99.90
37528;DHT22;23372;52.050;4.810;2024-02-21T01:39:50;9.70;99.90
37528;DHT22;23372;52.050;4.810;2024-02-21T01:42:16;9.70;99.90
37528;DHT22;23372;52.050;4.810;2024-02-21T01:44:41;9.70;99.90
37528;DHT22;23372;52.050;4.810;2024-02-21T01:47:07;9.80;99.90
37528;DHT22;23372;52.050;4.810;2024-02-21T01:49:33;9.80;99.90
37528;DHT22;23372;52.050;4.810;2024-02-21T01:52:00;9.70;99.90
37528;DHT22;23372;52.050;4.810;2024-02-21T01:54:26;9.70;99.90
37528;DHT22;23372;52.050;4.810;2024-02-21T01:56:54;9.70;99.90
37528;DHT22;23372;52.050;4.810;2024-02-21T01:59:21;9.70;99.90
37528;DHT22;23372;52.050;4.810;2024-02-21T02:01:47;9.70;99.90
37528;DHT22;23372;52.050;4.810;2024-02-21T02:04:13;9.70;99.90
37528;DHT22;23372;52.050;4.810;2024-02-21T02:06:40;9.70;99.90
37528;DHT22;23372;52.050;4.810;2024-02-21T02:09:06;9.70;99.90
37528;DHT22;23372;52.050;4.810;2024-02-21T02:11:32;9.70;99.90
37528;DHT22;23372;52.050;4.810;2024-02-21T02:13:57;9.70;99.90
37528;DHT22;23372;52.050;4.810;2024-02-21T02:16:23;9.70;99.90
37528;DHT22;23372;52.050;4.810;2024-02-21T02:18:48;9.70;99.90
37528;DHT22;23372;52.050;4.810;2024-02-21T02:21:32;9.70;99.90
37528;DHT22;23372;52.050;4.810;2024-02-21T02:23:59;9.70;99.90
37528;DHT22;23372;52.050;4.810;2024-02-21T02:26:24;9.70;99.90
37528;DHT22;23372;52.050;4.810;2024-02-21T02:28:50;9.70;99.90
37528;DHT22;23372;52.050;4.810;2024-02-21T02:31:15;9.70;99.90
37528;DHT22;23372;52.050;4.810;2024-02-21T02:33:43;9.70;99.90
37528;DHT22;23372;52.050;4.810;2024-02-21T02:36:09;9.70;99.90
37528;DHT22;23372;52.050;4.810;2024-02-21T02:38:35;9.70;99.90
37528;DHT22;23372;52.050;4.810;2024-02-21T02:41:01;9.70;99.90
37528;DHT22;23372;52.050;4.810;2024-02-21T02:43:26;9.70;99.90
37528;DHT22;23372;52.050;4.810;2024-02-21T02:45:52;9.70;99.90
37528;DHT22;23372;52.050;4.810;2024-02-21T02:48:17;9.70;99.90
37528;DHT22;23372;52.050;4.810;2024-02-21T02:50:59;9.70;99.90
37528;DHT22;23372;52.050;4.810;2024-02-21T02:53:24;9.70;99.90
37528;DHT22;23372;52.050;4.810;2024-02-21T02:55:50;9.70;99.90
37528;DHT22;23372;52.050;4.810;2024-02-21T02:58:15;9.70;99.90
37528;DHT22;23372;52.050;4.810;2024-02-21T03:00:41;9.70;99.90
37528;DHT22;23372;52.050;4.810;2024-02-21T03:03:07;9.70;99.90
37528;DHT22;23372;52.050;4.810;2024-02-21T03:05:34;9.70;99.90
37528;DHT22;23372;52.050;4.810;2024-02-21T03:07:59;9.70;99.90
37528;DHT22;23372;52.050;4.810;2024-02-21T03:10:25;9.70;99.90
37528;DHT22;23372;52.050;4.810;2024-02-21T03:12:50;9.70;99.90
37528;DHT22;23372;52.050;4.810;2024-02-21T03:15:18;9.70;99.90
37528;DHT22;23372;52.050;4.810;2024-02-21T03:17:43;9.70;99.90
37528;DHT22;23372;52.050;4.810;2024-02-21T03:20:09;9.70;99.90
37528;DHT22;23372;52.050;4.810;2024-02-21T03:22:36;9.70;99.90
37528;DHT22;23372;52.050;4.810;2024-02-21T03:25:02;9.70;99.90
37528;DHT22;23372;52.050;4.810;2024-02-21T03:27:27;9.60;99.90
37528;DHT22;23372;52.050;4.810;2024-02-21T03:29:53;9.70;99.90
37528;DHT22;23372;52.050;4.810;2024-02-21T03:32:18;9.70;99.90
37528;DHT22;23372;52.050;4.810;2024-02-21T03:34:44;9.60;99.90
37528;DHT22;23372;52.050;4.810;2024-02-21T03:37:09;9.70;99.90
37528;DHT22;23372;52.050;4.810;2024-02-21T03:39:35;9.60;99.90
37528;DHT22;23372;52.050;4.810;2024-02-21T03:42:01;9.60;99.90
37528;DHT22;23372;52.050;4.810;2024-02-21T03:44:30;9.60;99.90
37528;DHT22;23372;52.050;4.810;2024-02-21T03:46:56;9.60;99.90
37528;DHT22;23372;52.050;4.810;2024-02-21T03:49:21;9.50;99.90
37528;DHT22;23372;52.050;4.810;2024-02-21T03:51:47;9.50;99.90
37528;DHT22;23372;52.050;4.810;2024-02-21T03:54:13;9.40;99.90
37528;DHT22;23372;52.050;4.810;2024-02-21T03:56:38;9.40;99.90
37528;DHT22;23372;52.050;4.810;2024-02-21T03:59:08;9.40;99.90
37528;DHT22;23372;52.050;4.810;2024-02-21T04:01:34;9.40;99.90
37528;DHT22;23372;52.050;4.810;2024-02-21T04:04:00;9.30;99.90
37528;DHT22;23372;52.050;4.810;2024-02-21T04:06:26;9.30;99.90
37528;DHT22;23372;52.050;4.810;2024-02-21T04:08:51;9.30;99.90
37528;DHT22;23372;52.050;4.810;2024-02-21T04:11:17;9.30;99.90
37528;DHT22;23372;52.050;4.810;2024-02-21T04:13:44;9.30;99.90
37528;DHT22;23372;52.050;4.810;2024-02-21T04:16:10;9.20;99.90
37528;DHT22;23372;52.050;4.810;2024-02-21T04:18:35;9.30;99.90
37528;DHT22;23372;52.050;4.810;2024-02-21T04:21:01;9.30;99.90
37528;DHT22;23372;52.050;4.810;2024-02-21T04:23:26;9.30;99.90
37528;DHT22;23372;52.050;4.810;2024-02-21T04:25:52;9.30;99.90
37528;DHT22;23372;52.050;4.810;2024-02-21T04:28:17;9.30;99.90
37528;DHT22;23372;52.050;4.810;2024-02-21T04:30:43;9.30;99.90
37528;DHT22;23372;52.050;4.810;2024-02-21T04:33:09;9.30;99.90
37528;DHT22;23372;52.050;4.810;2024-02-21T04:35:36;9.30;99.90
37528;DHT22;23372;52.050;4.810;2024-02-21T04:38:02;9.30;99.90
37528;DHT22;23372;52.050;4.810;2024-02-21T04:40:27;9.30;99.90
37528;DHT22;23372;52.050;4.810;2024-02-21T04:42:53;9.30;99.90
37528;DHT22;23372;52.050;4.810;2024-02-21T04:45:19;9.20;99.90
37528;DHT22;23372;52.050;4.810;2024-02-21T04:47:44;9.20;99.90
37528;DHT22;23372;52.050;4.810;2024-02-21T04:50:10;9.20;99.90
37528;DHT22;23372;52.050;4.810;2024-02-21T04:52:35;9.20;99.90
37528;DHT22;23372;52.050;4.810;2024-02-21T04:55:01;9.20;99.90
37528;DHT22;23372;52.050;4.810;2024-02-21T04:57:26;9.20;99.90
37528;DHT22;23372;52.050;4.810;2024-02-21T04:59:52;9.20;99.90
37528;DHT22;23372;52.050;4.810;2024-02-21T05:02:18;9.20;99.90
37528;DHT22;23372;52.050;4.810;2024-02-21T05:04:44;9.20;99.90
37528;DHT22;23372;52.050;4.810;2024-02-21T05:07:10;9.20;99.90
37528;DHT22;23372;52.050;4.810;2024-02-21T05:09:37;9.20;99.90
37528;DHT22;23372;52.050;4.810;2024-02-21T05:12:03;9.20;99.90
37528;DHT22;23372;52.050;4.810;2024-02-21T05:14:28;9.20;99.90
37528;DHT22;23372;52.050;4.810;2024-02-21T05:16:54;9.20;99.90
37528;DHT22;23372;52.050;4.810;2024-02-21T05:19:19;9.20;99.90
37528;DHT22;23372;52.050;4.810;2024-02-21T05:21:45;9.20;99.90
37528;DHT22;23372;52.050;4.810;2024-02-21T05:24:11;9.20;99.90
37528;DHT22;23372;52.050;4.810;2024-02-21T05:26:37;9.20;99.90
37528;DHT22;23372;52.050;4.810;2024-02-21T05:29:02;9.20;99.90
37528;DHT22;23372;52.050;4.810;2024-02-21T05:34:19;9.20;99.90
37528;DHT22;23372;52.050;4.810;2024-02-21T05:36:45;9.20;99.90
37528;DHT22;23372;52.050;4.810;2024-02-21T05:39:12;9.20;99.90
37528;DHT22;23372;52.050;4.810;2024-02-21T05:41:37;9.20;99.90
37528;DHT22;23372;52.050;4.810;2024-02-21T05:44:03;9.20;99.90
37528;DHT22;23372;52.050;4.810;2024-02-21T05:46:28;9.10;99.90
37528;DHT22;23372;52.050;4.810;2024-02-21T05:48:54;9.10;99.90
37528;DHT22;23372;52.050;4.810;2024-02-21T05:51:19;9.10;99.90
37528;DHT22;23372;52.050;4.810;2024-02-21T05:53:45;9.10;99.90
37528;DHT22;23372;52.050;4.810;2024-02-21T05:56:11;9.10;99.90
37528;DHT22;23372;52.050;4.810;2024-02-21T05:58:37;9.10;99.90
37528;DHT22;23372;52.050;4.810;2024-02-21T06:01:03;9.10;99.90
37528;DHT22;23372;52.050;4.810;2024-02-21T06:03:29;9.10;99.90
37528;DHT22;23372;52.050;4.810;2024-02-21T06:05:55;9.10;99.90
37528;DHT22;23372;52.050;4.810;2024-02-21T06:08:20;9.10;99.90
37528;DHT22;23372;52.050;4.810;2024-02-21T06:10:46;9.10;99.90
37528;DHT22;23372;52.050;4.810;2024-02-21T06:13:14;9.10;99.90
37528;DHT22;23372;52.050;4.810;2024-02-21T06:15:39;9.10;99.90
37528;DHT22;23372;52.050;4.810;2024-02-21T06:18:05;9.10;99.90
37528;DHT22;23372;52.050;4.810;2024-02-21T06:20:30;9.10;99.90
37528;DHT22;23372;52.050;4.810;2024-02-21T06:22:57;9.10;99.90
37528;DHT22;23372;52.050;4.810;2024-02-21T06:25:22;9.10;99.90
37528;DHT22;23372;52.050;4.810;2024-02-21T06:27:48;9.10;99.90
37528;DHT22;23372;52.050;4.810;2024-02-21T06:30:13;9.10;99.90
37528;DHT22;23372;52.050;4.810;2024-02-21T06:32:39;9.00;99.90
37528;DHT22;23372;52.050;4.810;2024-02-21T06:35:05;9.10;99.90
37528;DHT22;23372;52.050;4.810;2024-02-21T06:37:31;9.10;99.90
37528;DHT22;23372;52.050;4.810;2024-02-21T06:39:57;9.00;99.90
37528;DHT22;23372;52.050;4.810;2024-02-21T06:42:24;9.00;99.90
37528;DHT22;23372;52.050;4.810;2024-02-21T06:44:50;9.00;99.90
37528;DHT22;23372;52.050;4.810;2024-02-21T06:47:15;9.00;99.90
37528;DHT22;23372;52.050;4.810;2024-02-21T06:49:41;9.00;99.90
37528;DHT22;23372;52.050;4.810;2024-02-21T06:52:07;9.00;99.90
37528;DHT22;23372;52.050;4.810;2024-02-21T06:54:33;9.00;99.90
37528;DHT22;23372;52.050;4.810;2024-02-21T06:56:58;9.00;99.90
37528;DHT22;23372;52.050;4.810;2024-02-21T06:59:24;9.00;99.90
37528;DHT22;23372;52.050;4.810;2024-02-21T07:01:52;8.90;99.90
37528;DHT22;23372;52.050;4.810;2024-02-21T07:04:18;8.90;99.90
37528;DHT22;23372;52.050;4.810;2024-02-21T07:06:43;8.90;99.90
37528;DHT22;23372;52.050;4.810;2024-02-21T07:09:09;8.90;99.90
37528;DHT22;23372;52.050;4.810;2024-02-21T07:11:35;8.90;99.90
37528;DHT22;23372;52.050;4.810;2024-02-21T07:14:00;8.90;99.90
37528;DHT22;23372;52.050;4.810;2024-02-21T07:16:26;8.90;99.90
37528;DHT22;23372;52.050;4.810;2024-02-21T07:18:52;8.90;99.90
37528;DHT22;23372;52.050;4.810;2024-02-21T07:21:17;8.90;99.90
37528;DHT22;23372;52.050;4.810;2024-02-21T07:23:43;8.90;99.90
37528;DHT22;23372;52.050;4.810;2024-02-21T07:26:08;8.90;99.90
37528;DHT22;23372;52.050;4.810;2024-02-21T07:28:34;8.80;99.90
37528;DHT22;23372;52.050;4.810;2024-02-21T07:31:00;8.90;99.90
37528;DHT22;23372;52.050;4.810;2024-02-21T07:33:25;8.80;99.90
37528;DHT22;23372;52.050;4.810;2024-02-21T07:35:51;8.90;99.90
37528;DHT22;23372;52.050;4.810;2024-02-21T07:38:16;8.90;99.90
37528;DHT22;23372;52.050;4.810;2024-02-21T07:40:46;8.90;99.90
37528;DHT22;23372;52.050;4.810;2024-02-21T07:43:12;8.90;99.90
37528;DHT22;23372;52.050;4.810;2024-02-21T07:45:37;8.90;99.90
37528;DHT22;23372;52.050;4.810;2024-02-21T07:48:08;8.90;99.90
37528;DHT22;23372;52.050;4.810;2024-02-21T07:50:33;8.90;99.90
37528;DHT22;23372;52.050;4.810;2024-02-21T07:52:59;8.90;99.90
37528;DHT22;23372;52.050;4.810;2024-02-21T07:55:24;8.90;99.90
37528;DHT22;23372;52.050;4.810;2024-02-21T07:57:50;9.00;99.90
37528;DHT22;23372;52.050;4.810;2024-02-21T08:00:16;9.00;99.90
37528;DHT22;23372;52.050;4.810;2024-02-21T08:02:51;9.10;99.90
37528;DHT22;23372;52.050;4.810;2024-02-21T08:05:16;9.10;99.90
37528;DHT22;23372;52.050;4.810;2024-02-21T08:07:42;9.10;99.90
37528;DHT22;23372;52.050;4.810;2024-02-21T08:10:08;9.20;99.90
37528;DHT22;23372;52.050;4.810;2024-02-21T08:12:34;9.20;99.90
37528;DHT22;23372;52.050;4.810;2024-02-21T08:15:00;9.20;99.90
37528;DHT22;23372;52.050;4.810;2024-02-21T08:17:25;9.20;99.90
37528;DHT22;23372;52.050;4.810;2024-02-21T08:19:51;9.30;99.90
37528;DHT22;23372;52.050;4.810;2024-02-21T08:22:16;9.30;99.90
37528;DHT22;23372;52.050;4.810;2024-02-21T08:24:42;9.20;99.90
37528;DHT22;23372;52.050;4.810;2024-02-21T08:27:07;9.20;99.90
37528;DHT22;23372;52.050;4.810;2024-02-21T08:29:33;9.20;99.90
37528;DHT22;23372;52.050;4.810;2024-02-21T08:31:59;9.20;99.90
37528;DHT22;23372;52.050;4.810;2024-02-21T08:34:24;9.20;99.90
37528;DHT22;23372;52.050;4.810;2024-02-21T08:36:50;9.20;99.90
37528;DHT22;23372;52.050;4.810;2024-02-21T08:39:15;9.20;99.90
37528;DHT22;23372;52.050;4.810;2024-02-21T08:41:42;9.20;99.90
37528;DHT22;23372;52.050;4.810;2024-02-21T08:44:08;9.20;99.90
37528;DHT22;23372;52.050;4.810;2024-02-21T08:46:33;9.20;99.90
37528;DHT22;23372;52.050;4.810;2024-02-21T08:48:59;9.20;99.90
37528;DHT22;23372;52.050;4.810;2024-02-21T08:51:25;9.20;99.90
37528;DHT22;23372;52.050;4.810;2024-02-21T08:53:51;9.30;99.90
37528;DHT22;23372;52.050;4.810;2024-02-21T08:56:19;9.20;99.90
37528;DHT22;23372;52.050;4.810;2024-02-21T08:58:44;9.20;99.90
37528;DHT22;23372;52.050;4.810;2024-02-21T09:01:10;9.20;99.90
37528;DHT22;23372;52.050;4.810;2024-02-21T09:03:39;9.20;99.90
37528;DHT22;23372;52.050;4.810;2024-02-21T09:06:05;9.30;99.90
37528;DHT22;23372;52.050;4.810;2024-02-21T09:08:31;9.20;99.90
37528;DHT22;23372;52.050;4.810;2024-02-21T09:10:57;9.20;99.90
37528;DHT22;23372;52.050;4.810;2024-02-21T09:13:23;9.20;99.90
37528;DHT22;23372;52.050;4.810;2024-02-21T09:15:49;9.20;99.90
37528;DHT22;23372;52.050;4.810;2024-02-21T09:18:15;9.30;99.90
37528;DHT22;23372;52.050;4.810;2024-02-21T09:20:41;9.20;99.90
37528;DHT22;23372;52.050;4.810;2024-02-21T09:23:07;9.10;99.90
37528;DHT22;23372;52.050;4.810;2024-02-21T09:25:32;9.10;99.90
37528;DHT22;23372;52.050;4.810;2024-02-21T09:27:58;9.10;99.90
37528;DHT22;23372;52.050;4.810;2024-02-21T09:30:24;9.10;99.90
37528;DHT22;23372;52.050;4.810;2024-02-21T09:32:50;9.10;99.90
37528;DHT22;23372;52.050;4.810;2024-02-21T09:35:15;9.10;99.90
37528;DHT22;23372;52.050;4.810;2024-02-21T09:37:41;9.10;99.90
37528;DHT22;23372;52.050;4.810;2024-02-21T09:40:07;9.10;99.90
37528;DHT22;23372;52.050;4.810;2024-02-21T09:42:39;9.10;99.90
37528;DHT22;23372;52.050;4.810;2024-02-21T09:45:13;9.20;99.90
37528;DHT22;23372;52.050;4.810;2024-02-21T09:50:32;9.20;99.90
37528;DHT22;23372;52.050;4.810;2024-02-21T09:53:00;9.30;99.90
37528;DHT22;23372;52.050;4.810;2024-02-21T09:55:29;9.30;99.90
37528;DHT22;23372;52.050;4.810;2024-02-21T09:57:55;9.40;99.90
37528;DHT22;23372;52.050;4.810;2024-02-21T10:00:22;9.50;99.90
37528;DHT22;23372;52.050;4.810;2024-02-21T10:02:48;9.60;99.90
37528;DHT22;23372;52.050;4.810;2024-02-21T10:05:15;9.50;99.90
37528;DHT22;23372;52.050;4.810;2024-02-21T10:07:41;9.60;99.90
37528;DHT22;23372;52.050;4.810;2024-02-21T10:10:07;9.60;99.90
37528;DHT22;23372;52.050;4.810;2024-02-21T10:12:33;9.70;99.90
37528;DHT22;23372;52.050;4.810;2024-02-21T10:15:02;9.70;99.90
37528;DHT22;23372;52.050;4.810;2024-02-21T10:17:28;9.70;99.90
37528;DHT22;23372;52.050;4.810;2024-02-21T10:19:54;9.80;99.90
37528;DHT22;23372;52.050;4.810;2024-02-21T10:22:19;9.70;99.90
37528;DHT22;23372;52.050;4.810;2024-02-21T10:24:48;9.80;99.90
37528;DHT22;23372;52.050;4.810;2024-02-21T10:27:14;9.80;99.90
37528;DHT22;23372;52.050;4.810;2024-02-21T10:29:40;9.70;99.90
37528;DHT22;23372;52.050;4.810;2024-02-21T10:32:11;9.70;99.90
37528;DHT22;23372;52.050;4.810;2024-02-21T10:34:38;9.70;99.90
37528;DHT22;23372;52.050;4.810;2024-02-21T10:37:05;9.70;99.90
37528;DHT22;23372;52.050;4.810;2024-02-21T10:39:49;9.70;99.90
37528;DHT22;23372;52.050;4.810;2024-02-21T10:42:17;9.80;99.90
37528;DHT22;23372;52.050;4.810;2024-02-21T10:44:53;9.80;99.90
37528;DHT22;23372;52.050;4.810;2024-02-21T10:47:19;9.90;99.90
37528;DHT22;23372;52.050;4.810;2024-02-21T10:49:55;9.80;99.90
37528;DHT22;23372;52.050;4.810;2024-02-21T10:55:20;9.80;99.90
37528;DHT22;23372;52.050;4.810;2024-02-21T10:57:50;9.80;99.90
37528;DHT22;23372;52.050;4.810;2024-02-21T11:00:17;9.70;99.90
37528;DHT22;23372;52.050;4.810;2024-02-21T11:02:44;9.70;99.90
37528;DHT22;23372;52.050;4.810;2024-02-21T11:05:10;9.70;99.90
37528;DHT22;23372;52.050;4.810;2024-02-21T11:07:37;9.70;99.90
37528;DHT22;23372;52.050;4.810;2024-02-21T11:10:03;9.70;99.90
37528;DHT22;23372;52.050;4.810;2024-02-21T11:12:32;9.70;99.90
37528;DHT22;23372;52.050;4.810;2024-02-21T11:15:07;9.80;99.90
37528;DHT22;23372;52.050;4.810;2024-02-21T11:17:33;9.80;99.90
37528;DHT22;23372;52.050;4.810;2024-02-21T11:19:58;9.80;99.90
37528;DHT22;23372;52.050;4.810;2024-02-21T11:22:26;9.80;99.90
37528;DHT22;23372;52.050;4.810;2024-02-21T11:25:06;10.00;99.90
37528;DHT22;23372;52.050;4.810;2024-02-21T11:27:34;10.00;99.90
37528;DHT22;23372;52.050;4.810;2024-02-21T11:29:59;10.00;99.90
37528;DHT22;23372;52.050;4.810;2024-02-21T11:32:26;10.10;99.90
37528;DHT22;23372;52.050;4.810;2024-02-21T11:35:00;10.30;99.90
37528;DHT22;23372;52.050;4.810;2024-02-21T11:37:31;10.30;99.90
37528;DHT22;23372;52.050;4.810;2024-02-21T11:40:03;10.30;99.90
37528;DHT22;23372;52.050;4.810;2024-02-21T11:42:29;10.30;99.90
37528;DHT22;23372;52.050;4.810;2024-02-21T11:44:59;10.40;99.90
37528;DHT22;23372;52.050;4.810;2024-02-21T11:47:24;10.30;99.90
37528;DHT22;23372;52.050;4.810;2024-02-21T11:49:50;10.30;99.90
37528;DHT22;23372;52.050;4.810;2024-02-21T11:52:23;10.30;99.90
37528;DHT22;23372;52.050;4.810;2024-02-21T11:54:54;10.40;99.90
37528;DHT22;23372;52.050;4.810;2024-02-21T11:57:21;10.50;99.90
37528;DHT22;23372;52.050;4.810;2024-02-21T11:59:46;10.50;99.90
37528;DHT22;23372;52.050;4.810;2024-02-21T12:02:13;10.60;99.90
37528;DHT22;23372;52.050;4.810;2024-02-21T12:04:39;10.60;99.90
37528;DHT22;23372;52.050;4.810;2024-02-21T12:07:05;10.60;99.90
37528;DHT22;23372;52.050;4.810;2024-02-21T12:09:31;10.50;99.90
37528;DHT22;23372;52.050;4.810;2024-02-21T12:12:04;10.60;99.90
37528;DHT22;23372;52.050;4.810;2024-02-21T12:14:34;10.60;99.90
37528;DHT22;23372;52.050;4.810;2024-02-21T12:17:00;10.50;99.90
37528;DHT22;23372;52.050;4.810;2024-02-21T12:19:29;10.60;99.90
37528;DHT22;23372;52.050;4.810;2024-02-21T12:21:55;10.50;99.90
37528;DHT22;23372;52.050;4.810;2024-02-21T12:24:25;10.40;99.90
37528;DHT22;23372;52.050;4.810;2024-02-21T12:26:52;10.40;99.90
37528;DHT22;23372;52.050;4.810;2024-02-21T12:29:18;10.40;99.90
37528;DHT22;23372;52.050;4.810;2024-02-21T12:31:44;10.30;99.90
37528;DHT22;23372;52.050;4.810;2024-02-21T12:34:10;10.30;99.90
37528;DHT22;23372;52.050;4.810;2024-02-21T12:36:41;10.30;99.90
37528;DHT22;23372;52.050;4.810;2024-02-21T12:39:10;10.30;99.90
37528;DHT22;23372;52.050;4.810;2024-02-21T12:41:37;10.20;99.90
37528;DHT22;23372;52.050;4.810;2024-02-21T12:44:07;10.20;99.90
37528;DHT22;23372;52.050;4.810;2024-02-21T12:46:35;10.20;99.90
37528;DHT22;23372;52.050;4.810;2024-02-21T12:49:02;10.20;99.90
37528;DHT22;23372;52.050;4.810;2024-02-21T12:51:28;10.20;99.90
37528;DHT22;23372;52.050;4.810;2024-02-21T12:53:55;10.20;99.90
37528;DHT22;23372;52.050;4.810;2024-02-21T12:56:21;10.30;99.90
37528;DHT22;23372;52.050;4.810;2024-02-21T12:58:46;10.30;99.90
37528;DHT22;23372;52.050;4.810;2024-02-21T13:01:12;10.20;99.90
37528;DHT22;23372;52.050;4.810;2024-02-21T13:03:37;10.30;99.90
37528;DHT22;23372;52.050;4.810;2024-02-21T13:06:04;10.30;99.90
37528;DHT22;23372;52.050;4.810;2024-02-21T13:08:29;10.30;99.90
37528;DHT22;23372;52.050;4.810;2024-02-21T13:10:55;10.30;99.90
37528;DHT22;23372;52.050;4.810;2024-02-21T13:13:20;10.20;99.90
37528;DHT22;23372;52.050;4.810;2024-02-21T13:15:46;10.20;99.90
37528;DHT22;23372;52.050;4.810;2024-02-21T13:18:12;10.10;99.90
37528;DHT22;23372;52.050;4.810;2024-02-21T13:20:38;10.10;99.90
37528;DHT22;23372;52.050;4.810;2024-02-21T13:23:03;10.10;99.90
37528;DHT22;23372;52.050;4.810;2024-02-21T13:25:29;10.00;99.90
37528;DHT22;23372;52.050;4.810;2024-02-21T13:27:55;10.00;99.90
37528;DHT22;23372;52.050;4.810;2024-02-21T13:30:22;10.10;99.90
37528;DHT22;23372;52.050;4.810;2024-02-21T13:32:48;10.00;99.90
37528;DHT22;23372;52.050;4.810;2024-02-21T13:35:14;10.10;99.90
37528;DHT22;23372;52.050;4.810;2024-02-21T13:37:40;10.10;99.90
37528;DHT22;23372;52.050;4.810;2024-02-21T13:40:07;10.10;99.90
37528;DHT22;23372;52.050;4.810;2024-02-21T13:42:39;10.00;99.90
37528;DHT22;23372;52.050;4.810;2024-02-21T13:45:05;10.00;99.90
37528;DHT22;23372;52.050;4.810;2024-02-21T13:47:32;10.00;99.90
37528;DHT22;23372;52.050;4.810;2024-02-21T13:49:58;10.00;99.90
37528;DHT22;23372;52.050;4.810;2024-02-21T13:52:23;10.00;99.90
37528;DHT22;23372;52.050;4.810;2024-02-21T13:54:52;10.10;99.90
37528;DHT22;23372;52.050;4.810;2024-02-21T13:57:17;10.00;99.90
37528;DHT22;23372;52.050;4.810;2024-02-21T13:59:43;10.10;99.90
37528;DHT22;23372;52.050;4.810;2024-02-21T14:02:08;10.10;99.90
37528;DHT22;23372;52.050;4.810;2024-02-21T14:04:34;10.10;99.90
37528;DHT22;23372;52.050;4.810;2024-02-21T14:07:00;10.00;99.90
37528;DHT22;23372;52.050;4.810;2024-02-21T14:09:26;10.00;99.90
37528;DHT22;23372;52.050;4.810;2024-02-21T14:11:52;9.90;99.90
37528;DHT22;23372;52.050;4.810;2024-02-21T14:14:17;9.90;99.90
37528;DHT22;23372;52.050;4.810;2024-02-21T14:16:43;9.90;99.90
37528;DHT22;23372;52.050;4.810;2024-02-21T14:19:08;9.80;99.90
37528;DHT22;23372;52.050;4.810;2024-02-21T14:21:34;9.80;99.90
37528;DHT22;23372;52.050;4.810;2024-02-21T14:24:04;9.80;99.90
37528;DHT22;23372;52.050;4.810;2024-02-21T14:26:30;9.70;99.90
37528;DHT22;23372;52.050;4.810;2024-02-21T14:28:59;9.70;99.90
37528;DHT22;23372;52.050;4.810;2024-02-21T14:31:25;9.70;99.90
37528;DHT22;23372;52.050;4.810;2024-02-21T14:33:51;9.60;99.90
37528;DHT22;23372;52.050;4.810;2024-02-21T14:36:17;9.60;99.90
37528;DHT22;23372;52.050;4.810;2024-02-21T14:38:43;9.60;99.90
37528;DHT22;23372;52.050;4.810;2024-02-21T14:41:10;9.50;99.90
37528;DHT22;23372;52.050;4.810;2024-02-21T14:43:38;9.50;99.90
37528;DHT22;23372;52.050;4.810;2024-02-21T14:46:04;9.40;99.90
37528;DHT22;23372;52.050;4.810;2024-02-21T14:48:33;9.40;99.90
37528;DHT22;23372;52.050;4.810;2024-02-21T14:50:59;9.30;99.90
37528;DHT22;23372;52.050;4.810;2024-02-21T14:53:25;9.30;99.90
37528;DHT22;23372;52.050;4.810;2024-02-21T14:55:50;9.30;99.90
37528;DHT22;23372;52.050;4.810;2024-02-21T14:58:17;9.20;99.90
37528;DHT22;23372;52.050;4.810;2024-02-21T15:00:45;9.30;99.90
37528;DHT22;23372;52.050;4.810;2024-02-21T15:03:12;9.20;99.90
37528;DHT22;23372;52.050;4.810;2024-02-21T15:05:40;9.20;99.90
37528;DHT22;23372;52.050;4.810;2024-02-21T15:08:06;9.20;99.90
37528;DHT22;23372;52.050;4.810;2024-02-21T15:10:34;9.20;99.90
37528;DHT22;23372;52.050;4.810;2024-02-21T15:13:00;9.20;99.90
37528;DHT22;23372;52.050;4.810;2024-02-21T15:15:25;9.10;99.90
37528;DHT22;23372;52.050;4.810;2024-02-21T15:17:51;9.10;99.90
37528;DHT22;23372;52.050;4.810;2024-02-21T15:20:16;9.10;99.90
37528;DHT22;23372;52.050;4.810;2024-02-21T15:22:42;9.10;99.90
37528;DHT22;23372;52.050;4.810;2024-02-21T15:25:08;9.10;99.90
37528;DHT22;23372;52.050;4.810;2024-02-21T15:27:43;9.10;99.90
37528;DHT22;23372;52.050;4.810;2024-02-21T15:30:10;9.10;99.90
37528;DHT22;23372;52.050;4.810;2024-02-21T15:32:35;9.10;99.90
37528;DHT22;23372;52.050;4.810;2024-02-21T15:35:03;9.10;99.90
37528;DHT22;23372;52.050;4.810;2024-02-21T15:37:29;9.10;99.90
37528;DHT22;23372;52.050;4.810;2024-02-21T15:39:55;9.10;99.90
37528;DHT22;23372;52.050;4.810;2024-02-21T15:42:20;9.10;99.90
37528;DHT22;23372;52.050;4.810;2024-02-21T15:44:46;9.10;99.90